Terminal Aerodrome Forecast
Issued by NWS

Home | Current Version | Previous Version | Text Only | Print | Product List | Glossary On
Versions: 1 2 3 4 5 6 7 8 9 10 11 12 13 14 15 16 17 18 19 20 21 22 23 24 25 26 27 28 29 30 31 32 33 34 35 36 37
639
FTUS43 KPAH 241720
TAFOWB
TAF
KOWB 241720Z 2418/2518 34007KT P6SM -RA SCT008 OVC012
      TEMPO 2418/2421 5SM RA BR BKN008
     FM242200 34005KT P6SM VCSH BKN015
     FM250300 VRB03KT 6SM BR BKN020
     FM251000 35005KT 5SM BR BKN007
     FM251500 36007KT P6SM BKN015=

USA.gov is the U.S. government's official web portal to all federal, state and local government web resources and services.